首页
METAR-TAF:

METAR-TAF

机场 :

Thief River Falls Regional Airport

Thief River Falls, 明尼蘇達州, 美国

纬度: 48-04N, 经度: 096-11W, 海拔: 340米

当前天气观测

该预报发布于1小时和2分钟前的21:56 UTC
风速5节,风向南转西南
温度 25°C
湿度 41%
气压 1016 hPa
能見度: 16.1公里
散云层高于6000英尺

METAR: KTVF 142156Z AUTO 21005KT 10SM SCT060 25/11 A2999 RMK AO2 SLP157 T02500111

时间: 17:58 (22:58 UTC)

预报

该预报发布于40分钟前的22:18 UTC
预报有效从14日的 22点(UTC)到 15日的 18点(UTC)
风速6节,风向南转西南
能見度: 10公里
散云层高于6000英尺
从 15日的 0500点(UTC)
风速7节,风向
能見度: 10公里
多云层高于23000英尺
从 15日的 1200点(UTC)
风速12节,风向南转南东,有时为20节阵风
能見度: 10公里
多云层高于9000英尺
从 15日的 1600点(UTC)
风速16节,风向,有时为24节阵风
能見度: 10公里
多云层高于3500英尺

TAF: KTVF 142218Z 1422/1518 21006KT P6SM SCT060 FM150500 18007KT P6SM BKN230 FM151200 15012G20KT P6SM BKN090 FM151600 17016G24KT P6SM BKN035

超过4000个机场的气象观测和天气预报(METAR&TAF报告)。

可查询的气象台以黄色和红色小点在地图上表示。

将鼠标移到小点上方,可查看气象台名称。

然后点击查看天气观测和预报。

如需切换地图:点击带黑十字的绿色按钮放大地图;点击带横线的绿色按钮缩小地图;或者点击绿色箭头查看邻近地区的地图。


METAR-TAF: